Weather at Air Harbor Airport

Public forecast

Using degrees Fahrenheit for public forecast. Weather courtesy of forecast.io.

Closest aviation weather report (METAR) to Air Harbor Airport

Closest report is Piedmont Triad International Airport, 7.9 nm (14.7 km) SW. Retrieved 2020/12/01 19:54 UTC (28 minutes ago):

KGSO 011954Z 28017KT 10SM BKN050 BKN250 05/M06 A2993 RMK AO2 PK WND 29026/1921 SLP136 T00501056

Closest aviation forecast (TAF) to Air Harbor Airport

Closest forecast is Piedmont Triad International Airport, 7.9 nm (14.7 km) SW. Retrieved 2020/12/01 18:30 UTC (2 hours ago):

TAF KGSO 011727Z 0118/0218 29014KT P6SM BKN050 FM020100 28005KT P6SM SKC FM021500 31010G16KT P6SM SKC